sensor_id;sensor_type;location;lat;lon;timestamp;temperature;humidity
35244;DHT22;37916;52.160;21.066;2022-11-15T00:04:34;7.40;84.60
35244;DHT22;37916;52.160;21.066;2022-11-15T00:14:35;7.50;84.40
35244;DHT22;37916;52.160;21.066;2022-11-15T00:24:35;7.50;84.50
35244;DHT22;37916;52.160;21.066;2022-11-15T00:34:36;7.50;84.30
35244;DHT22;37916;52.160;21.066;2022-11-15T00:44:37;7.50;84.70
35244;DHT22;37916;52.160;21.066;2022-11-15T00:54:37;7.40;85.00
35244;DHT22;37916;52.160;21.066;2022-11-15T01:04:38;7.40;84.90
35244;DHT22;37916;52.160;21.066;2022-11-15T01:14:38;7.30;85.20
35244;DHT22;37916;52.160;21.066;2022-11-15T01:24:39;7.40;85.10
35244;DHT22;37916;52.160;21.066;2022-11-15T01:34:39;7.30;85.00
35244;DHT22;37916;52.160;21.066;2022-11-15T01:44:49;7.10;85.50
35244;DHT22;37916;52.160;21.066;2022-11-15T02:05:08;7.30;85.40
35244;DHT22;37916;52.160;21.066;2022-11-15T02:15:09;7.30;85.40
35244;DHT22;37916;52.160;21.066;2022-11-15T02:25:40;7.30;85.60
35244;DHT22;37916;52.160;21.066;2022-11-15T02:46:02;7.40;85.40
35244;DHT22;37916;52.160;21.066;2022-11-15T02:56:05;7.30;85.80
35244;DHT22;37916;52.160;21.066;2022-11-15T03:06:20;7.30;85.70
35244;DHT22;37916;52.160;21.066;2022-11-15T03:26:36;7.20;85.60
35244;DHT22;37916;52.160;21.066;2022-11-15T03:36:40;7.20;86.00
35244;DHT22;37916;52.160;21.066;2022-11-15T03:46:49;7.20;85.70
35244;DHT22;37916;52.160;21.066;2022-11-15T03:56:52;7.20;85.90
35244;DHT22;37916;52.160;21.066;2022-11-15T04:06:53;7.20;85.90
35244;DHT22;37916;52.160;21.066;2022-11-15T04:16:54;7.10;86.10
35244;DHT22;37916;52.160;21.066;2022-11-15T04:26:54;7.10;86.00
35244;DHT22;37916;52.160;21.066;2022-11-15T04:36:55;7.00;86.20
35244;DHT22;37916;52.160;21.066;2022-11-15T04:47:13;7.10;86.20
35244;DHT22;37916;52.160;21.066;2022-11-15T04:57:14;7.10;86.10
35244;DHT22;37916;52.160;21.066;2022-11-15T05:07:15;7.20;86.00
35244;DHT22;37916;52.160;21.066;2022-11-15T05:17:22;7.20;86.00
35244;DHT22;37916;52.160;21.066;2022-11-15T05:27:22;7.10;86.10
35244;DHT22;37916;52.160;21.066;2022-11-15T05:37:23;7.10;86.20
35244;DHT22;37916;52.160;21.066;2022-11-15T05:47:26;7.10;86.40
35244;DHT22;37916;52.160;21.066;2022-11-15T05:57:28;7.10;86.10
35244;DHT22;37916;52.160;21.066;2022-11-15T06:07:29;7.00;86.20
35244;DHT22;37916;52.160;21.066;2022-11-15T06:17:30;7.00;86.40
35244;DHT22;37916;52.160;21.066;2022-11-15T06:27:31;7.10;86.40
35244;DHT22;37916;52.160;21.066;2022-11-15T06:37:33;7.10;86.20
35244;DHT22;37916;52.160;21.066;2022-11-15T06:47:34;7.10;86.10
35244;DHT22;37916;52.160;21.066;2022-11-15T06:57:35;7.10;86.20
35244;DHT22;37916;52.160;21.066;2022-11-15T07:07:35;7.20;86.10
35244;DHT22;37916;52.160;21.066;2022-11-15T07:17:36;7.20;85.80
35244;DHT22;37916;52.160;21.066;2022-11-15T07:27:39;7.30;85.20
35244;DHT22;37916;52.160;21.066;2022-11-15T07:37:40;7.40;85.00
35244;DHT22;37916;52.160;21.066;2022-11-15T07:47:40;7.40;84.90
35244;DHT22;37916;52.160;21.066;2022-11-15T07:57:45;7.50;84.70
35244;DHT22;37916;52.160;21.066;2022-11-15T08:07:45;7.60;84.40
35244;DHT22;37916;52.160;21.066;2022-11-15T08:17:46;7.60;83.70
35244;DHT22;37916;52.160;21.066;2022-11-15T08:27:47;7.90;82.90
35244;DHT22;37916;52.160;21.066;2022-11-15T08:37:47;8.10;81.90
35244;DHT22;37916;52.160;21.066;2022-11-15T08:47:48;8.20;82.10
35244;DHT22;37916;52.160;21.066;2022-11-15T08:57:48;8.10;82.10
35244;DHT22;37916;52.160;21.066;2022-11-15T09:07:53;8.30;81.80
35244;DHT22;37916;52.160;21.066;2022-11-15T09:17:58;8.20;81.70
35244;DHT22;37916;52.160;21.066;2022-11-15T09:27:59;8.40;82.20
35244;DHT22;37916;52.160;21.066;2022-11-15T09:38:00;8.40;81.50
35244;DHT22;37916;52.160;21.066;2022-11-15T09:58:33;8.70;81.10
35244;DHT22;37916;52.160;21.066;2022-11-15T10:08:57;8.70;81.70
35244;DHT22;37916;52.160;21.066;2022-11-15T10:19:01;8.70;81.00
35244;DHT22;37916;52.160;21.066;2022-11-15T10:29:05;8.70;81.10
35244;DHT22;37916;52.160;21.066;2022-11-15T10:39:12;8.90;81.10
35244;DHT22;37916;52.160;21.066;2022-11-15T10:49:28;8.80;81.30
35244;DHT22;37916;52.160;21.066;2022-11-15T10:59:35;8.90;81.30
35244;DHT22;37916;52.160;21.066;2022-11-15T11:09:38;9.00;80.40
35244;DHT22;37916;52.160;21.066;2022-11-15T11:29:59;9.40;80.60
35244;DHT22;37916;52.160;21.066;2022-11-15T11:50:32;9.10;80.90
35244;DHT22;37916;52.160;21.066;2022-11-15T12:00:40;9.20;80.60
35244;DHT22;37916;52.160;21.066;2022-11-15T12:10:46;9.30;81.00
35244;DHT22;37916;52.160;21.066;2022-11-15T12:20:57;9.40;80.60
35244;DHT22;37916;52.160;21.066;2022-11-15T12:31:22;9.40;80.80
35244;DHT22;37916;52.160;21.066;2022-11-15T12:41:22;9.50;80.40
35244;DHT22;37916;52.160;21.066;2022-11-15T13:11:51;9.40;80.00
35244;DHT22;37916;52.160;21.066;2022-11-15T13:21:52;9.30;80.80
35244;DHT22;37916;52.160;21.066;2022-11-15T13:32:16;9.30;81.10
35244;DHT22;37916;52.160;21.066;2022-11-15T13:42:19;9.20;81.50
35244;DHT22;37916;52.160;21.066;2022-11-15T13:52:21;8.40;81.70
35244;DHT22;37916;52.160;21.066;2022-11-15T14:02:27;8.10;82.90
35244;DHT22;37916;52.160;21.066;2022-11-15T14:12:34;7.60;84.60
35244;DHT22;37916;52.160;21.066;2022-11-15T14:22:35;7.90;84.40
35244;DHT22;37916;52.160;21.066;2022-11-15T14:42:45;8.20;83.80
35244;DHT22;37916;52.160;21.066;2022-11-15T14:52:46;8.30;83.20
35244;DHT22;37916;52.160;21.066;2022-11-15T15:02:52;8.20;83.10
35244;DHT22;37916;52.160;21.066;2022-11-15T15:12:52;8.30;83.10
35244;DHT22;37916;52.160;21.066;2022-11-15T15:22:53;7.70;84.30
35244;DHT22;37916;52.160;21.066;2022-11-15T15:32:54;7.90;84.50
35244;DHT22;37916;52.160;21.066;2022-11-15T15:42:54;7.60;84.90
35244;DHT22;37916;52.160;21.066;2022-11-15T15:52:59;7.40;85.20
35244;DHT22;37916;52.160;21.066;2022-11-15T16:03:00;7.50;85.10
35244;DHT22;37916;52.160;21.066;2022-11-15T16:13:00;7.40;85.70
35244;DHT22;37916;52.160;21.066;2022-11-15T16:23:06;7.30;86.10
35244;DHT22;37916;52.160;21.066;2022-11-15T16:33:07;7.10;86.40
35244;DHT22;37916;52.160;21.066;2022-11-15T16:43:08;6.60;87.70
35244;DHT22;37916;52.160;21.066;2022-11-15T16:53:08;6.40;88.30
35244;DHT22;37916;52.160;21.066;2022-11-15T17:03:09;6.50;88.20
35244;DHT22;37916;52.160;21.066;2022-11-15T17:13:13;6.40;88.20
35244;DHT22;37916;52.160;21.066;2022-11-15T17:23:14;6.60;87.90
35244;DHT22;37916;52.160;21.066;2022-11-15T17:33:15;6.40;88.20
35244;DHT22;37916;52.160;21.066;2022-11-15T17:43:15;6.70;87.70
35244;DHT22;37916;52.160;21.066;2022-11-15T17:53:16;6.50;88.10
35244;DHT22;37916;52.160;21.066;2022-11-15T18:03:19;6.40;87.70
35244;DHT22;37916;52.160;21.066;2022-11-15T18:13:19;5.90;88.80
35244;DHT22;37916;52.160;21.066;2022-11-15T18:23:20;5.80;89.00
35244;DHT22;37916;52.160;21.066;2022-11-15T18:33:21;5.90;89.30
35244;DHT22;37916;52.160;21.066;2022-11-15T18:43:30;5.70;89.40
35244;DHT22;37916;52.160;21.066;2022-11-15T18:53:33;5.50;89.20
35244;DHT22;37916;52.160;21.066;2022-11-15T19:03:36;5.50;89.30
35244;DHT22;37916;52.160;21.066;2022-11-15T19:13:38;5.40;89.30
35244;DHT22;37916;52.160;21.066;2022-11-15T19:23:40;5.40;89.50
35244;DHT22;37916;52.160;21.066;2022-11-15T19:33:42;5.30;89.40
35244;DHT22;37916;52.160;21.066;2022-11-15T19:43:43;5.10;89.50
35244;DHT22;37916;52.160;21.066;2022-11-15T19:53:51;5.30;89.40
35244;DHT22;37916;52.160;21.066;2022-11-15T20:03:53;5.30;89.20
35244;DHT22;37916;52.160;21.066;2022-11-15T20:24:17;5.30;89.30
35244;DHT22;37916;52.160;21.066;2022-11-15T20:34:18;5.40;89.30
35244;DHT22;37916;52.160;21.066;2022-11-15T20:44:22;5.30;89.30
35244;DHT22;37916;52.160;21.066;2022-11-15T20:54:22;5.10;89.30
35244;DHT22;37916;52.160;21.066;2022-11-15T21:04:23;5.10;89.20
35244;DHT22;37916;52.160;21.066;2022-11-15T21:14:26;5.10;89.10
35244;DHT22;37916;52.160;21.066;2022-11-15T21:24:29;5.10;89.30
35244;DHT22;37916;52.160;21.066;2022-11-15T21:34:30;5.00;89.20
35244;DHT22;37916;52.160;21.066;2022-11-15T21:44:31;4.90;89.20
35244;DHT22;37916;52.160;21.066;2022-11-15T21:54:31;5.00;89.20
35244;DHT22;37916;52.160;21.066;2022-11-15T22:04:32;5.10;89.10
35244;DHT22;37916;52.160;21.066;2022-11-15T22:14:33;5.20;89.00
35244;DHT22;37916;52.160;21.066;2022-11-15T22:24:33;5.30;88.90
35244;DHT22;37916;52.160;21.066;2022-11-15T22:34:34;5.30;89.10
35244;DHT22;37916;52.160;21.066;2022-11-15T22:44:35;5.30;89.20
35244;DHT22;37916;52.160;21.066;2022-11-15T22:54:35;5.40;89.20
35244;DHT22;37916;52.160;21.066;2022-11-15T23:04:36;5.40;89.30
35244;DHT22;37916;52.160;21.066;2022-11-15T23:14:36;5.30;89.40
35244;DHT22;37916;52.160;21.066;2022-11-15T23:24:37;5.30;89.40
35244;DHT22;37916;52.160;21.066;2022-11-15T23:34:40;5.20;89.50
35244;DHT22;37916;52.160;21.066;2022-11-15T23:44:41;5.40;89.40
35244;DHT22;37916;52.160;21.066;2022-11-15T23:54:42;5.60;89.10
